Time;durP1;ratioP1;P1;durP2;ratioP2;P2;SDS_P1;SDS_P2;PMS_P1;PMS_P2;Temp;Humidity;BMP_temperature;BMP_pressure;BME280_temperature;BME280_humidity;BME280_pressure;Samples;Min_cycle;Max_cycle;Signal;HPM_P1;HPM_P2
2021/12/21 00:00:20;;;;;;;2.33;1.97;;;-1.30;76.20;-2.20;98998.00;;;;5115854;28;20193;-74
2021/12/21 00:02:50;;;;;;;1.90;1.57;;;-1.20;75.80;-2.20;98997.00;;;;5116854;28;20205;-74
2021/12/21 00:05:24;;;;;;;1.33;1.33;;;-1.30;75.70;-2.30;99013.00;;;;5098857;28;20209;-74
2021/12/21 00:07:55;;;;;;;2.60;2.40;;;-1.20;76.10;-2.50;99001.00;;;;5116647;28;20307;-74
2021/12/21 00:10:26;;;;;;;7.10;2.23;;;-1.30;76.20;-2.30;98995.00;;;;5116597;28;20621;-73
2021/12/21 00:13:06;;;;;;;1.60;1.50;;;-1.30;76.30;-2.30;98988.00;;;;5116520;28;20304;-73
2021/12/21 00:15:48;;;;;;;1.87;1.77;;;-1.40;76.50;-2.70;99000.00;;;;5116589;28;20236;-74
2021/12/21 00:18:26;;;;;;;2.03;1.93;;;-1.40;76.30;-2.30;98991.00;;;;5116513;28;20212;-74
2021/12/21 00:21:01;;;;;;;1.27;1.27;;;-1.30;77.30;-2.40;98992.00;;;;5098663;28;20237;-74
2021/12/21 00:23:31;;;;;;;1.47;1.40;;;-1.40;76.30;-2.40;98990.00;;;;5116579;28;20211;-74
2021/12/21 00:26:00;;;;;;;1.93;1.83;;;-1.40;75.90;-2.40;98995.00;;;;5116525;28;20276;-74
2021/12/21 00:28:31;;;;;;;1.40;1.40;;;-1.40;76.20;-2.50;98984.00;;;;5098355;28;20610;-74
2021/12/21 00:31:00;;;;;;;2.03;1.93;;;-1.50;76.20;-2.40;98990.00;;;;5116594;28;20212;-74
2021/12/21 00:33:26;;;;;;;2.53;1.70;;;-1.40;77.10;-2.50;98986.00;;;;5116551;28;20509;-74
2021/12/21 00:35:53;;;;;;;1.97;1.77;;;-1.50;76.40;-2.50;98980.00;;;;5116433;28;20281;-74
2021/12/21 00:38:19;;;;;;;2.40;1.87;;;-1.50;75.90;-2.60;98989.00;;;;5098660;28;20221;-74
2021/12/21 00:40:46;;;;;;;1.93;1.83;;;-1.60;75.70;-2.60;98976.00;;;;5116274;28;20699;-74
2021/12/21 00:43:12;;;;;;;0.90;0.90;;;-1.60;76.90;-2.50;98974.00;;;;5116096;28;20255;-74
2021/12/21 00:45:40;;;;;;;2.03;1.47;;;-1.50;76.40;-2.40;98979.00;;;;5098355;28;20640;-74
2021/12/21 00:48:06;;;;;;;1.53;1.50;;;-1.50;76.50;-2.40;98969.00;;;;5116125;28;20221;-74
2021/12/21 00:50:33;;;;;;;3.90;2.40;;;-1.50;76.40;-2.40;98965.00;;;;5116082;28;20612;-73
2021/12/21 00:53:01;;;;;;;3.73;2.00;;;-1.50;76.20;-2.50;98960.00;;;;5116012;28;20190;-74
2021/12/21 00:55:30;;;;;;;2.33;2.23;;;-1.50;75.50;-2.70;98961.00;;;;5097836;28;20241;-74
2021/12/21 00:57:59;;;;;;;1.60;1.50;;;-1.60;75.20;-2.60;98957.00;;;;5115988;28;20215;-74
2021/12/21 01:00:28;;;;;;;1.77;1.20;;;-1.60;75.80;-2.50;98952.00;;;;5098013;28;20547;-74
2021/12/21 01:02:57;;;;;;;6.90;2.43;;;-1.60;75.80;-2.60;98960.00;;;;5115738;28;20295;-74
2021/12/21 01:05:30;;;;;;;2.37;2.27;;;-1.60;75.80;-2.70;98953.00;;;;5115755;28;20198;-74
2021/12/21 01:07:59;;;;;;;2.80;2.60;;;-1.60;75.90;-2.70;98965.00;;;;5115707;28;20216;-74
2021/12/21 01:13:26;;;;;;;1.70;1.60;;;-1.70;76.20;-2.70;98958.00;;;;5115906;28;20209;-74
2021/12/21 01:16:17;;;;;;;2.67;1.83;;;-1.70;76.00;-2.70;98924.00;;;;5115963;28;20191;-74
2021/12/21 01:19:07;;;;;;;6.00;2.90;;;-1.70;75.80;-2.70;98958.00;;;;5115592;28;20633;-74
2021/12/21 01:21:39;;;;;;;1.27;1.27;;;-1.60;75.90;-2.70;98952.00;;;;5097605;28;20237;-75
2021/12/21 01:29:44;;;;;;;1.77;1.67;;;-1.70;75.80;-2.80;98948.00;;;;5115282;28;20203;-74
2021/12/21 01:32:18;;;;;;;1.37;1.27;;;-1.80;75.10;-2.90;98946.00;;;;5115447;28;20207;-74
2021/12/21 01:34:55;;;;;;;1.27;1.27;;;-1.80;75.60;-2.90;98944.00;;;;5115631;28;20305;-74
2021/12/21 01:37:27;;;;;;;1.90;1.80;;;-1.90;76.50;-2.90;98941.00;;;;5115367;28;20197;-74
2021/12/21 01:43:09;;;;;;;1.93;1.83;;;-1.90;75.60;-3.20;98948.00;;;;5095773;28;20223;-74
2021/12/21 01:51:09;;;;;;;2.00;1.53;;;-2.10;76.00;-3.10;98905.00;;;;5114211;28;20533;-74
2021/12/21 01:53:37;;;;;;;1.87;1.77;;;-2.00;75.50;-3.10;98951.00;;;;5114920;28;20669;-74
2021/12/21 01:56:04;;;;;;;1.53;1.43;;;-2.10;75.50;-3.10;98944.00;;;;5115142;28;20257;-74
2021/12/21 01:58:37;;;;;;;1.90;1.80;;;-2.10;76.30;-3.20;98954.00;;;;5114829;28;20227;-74
2021/12/21 02:01:08;;;;;;;1.53;1.43;;;-2.00;75.30;-3.10;98945.00;;;;5096960;28;20311;-74
2021/12/21 02:03:36;;;;;;;1.60;1.50;;;-2.00;76.00;-3.30;98943.00;;;;5114929;28;20206;-74
2021/12/21 02:06:04;;;;;;;1.83;1.73;;;-2.10;75.70;-3.30;98946.00;;;;5114827;28;20493;-74
2021/12/21 02:08:31;;;;;;;1.67;1.57;;;-2.20;76.10;-3.20;98949.00;;;;5114904;28;20287;-74
2021/12/21 02:11:04;;;;;;;2.63;2.43;;;-2.10;76.50;-3.00;98953.00;;;;5114868;28;20506;-74
2021/12/21 02:13:35;;;;;;;1.90;1.80;;;-2.00;76.20;-3.00;98949.00;;;;5114701;28;20302;-74
2021/12/21 02:16:02;;;;;;;1.20;1.20;;;-2.00;76.00;-3.20;98942.00;;;;5114889;28;20223;-74
2021/12/21 02:18:48;;;;;;;1.77;1.67;;;-2.00;75.70;-3.00;98939.00;;;;5114664;28;20251;-74
2021/12/21 02:21:27;;;;;;;1.93;1.83;;;-2.00;75.70;-3.10;98940.00;;;;5114674;28;20235;-74
2021/12/21 02:23:58;;;;;;;1.43;1.43;;;-2.00;74.90;-3.20;98908.00;;;;5114614;28;20212;-74
2021/12/21 02:26:40;;;;;;;1.27;1.27;;;-2.10;74.80;-3.20;98933.00;;;;5114632;28;20191;-74
2021/12/21 02:29:18;;;;;;;1.80;1.70;;;-2.20;74.80;-3.10;98933.00;;;;5114729;28;20254;-74
2021/12/21 02:31:48;;;;;;;1.30;1.30;;;-2.10;74.70;-3.10;98933.00;;;;5096625;28;20222;-74
2021/12/21 02:34:16;;;;;;;4.93;1.23;;;-2.10;74.70;-3.10;98934.00;;;;5114358;28;20258;-74
2021/12/21 02:36:47;;;;;;;2.40;1.70;;;-2.10;74.90;-3.20;98930.00;;;;5114569;28;20292;-74
2021/12/21 02:39:15;;;;;;;1.53;1.43;;;-2.20;74.80;-3.30;98937.00;;;;5114606;28;20677;-74
2021/12/21 02:41:43;;;;;;;1.53;1.43;;;-2.20;74.70;-3.40;98934.00;;;;5114513;28;20655;-74
2021/12/21 02:44:11;;;;;;;2.07;1.67;;;-2.30;74.80;-3.40;98936.00;;;;5114540;28;20195;-74
2021/12/21 02:46:39;;;;;;;1.40;1.37;;;-2.30;75.00;-3.40;98937.00;;;;5114395;28;20297;-74
2021/12/21 02:49:06;;;;;;;1.23;1.23;;;-2.30;75.30;-3.20;98923.00;;;;5114292;28;20502;-74
2021/12/21 02:51:33;;;;;;;1.37;1.30;;;-2.30;75.60;-3.20;98930.00;;;;5114385;28;20213;-74
2021/12/21 02:54:00;;;;;;;3.00;2.50;;;-2.20;75.00;-3.20;98927.00;;;;5096406;28;20636;-74
2021/12/21 02:56:29;;;;;;;1.43;1.33;;;-2.30;74.70;-3.40;98878.00;;;;5114506;28;20214;-75
2021/12/21 02:58:55;;;;;;;2.10;1.90;;;-2.30;74.60;-3.40;98927.00;;;;5114533;28;20224;-74
2021/12/21 03:01:22;;;;;;;1.37;1.37;;;-2.30;74.40;-3.40;98925.00;;;;5114577;28;20198;-74
2021/12/21 03:03:49;;;;;;;3.53;2.97;;;-2.30;74.90;-3.40;98930.00;;;;5114440;28;20662;-74
2021/12/21 03:06:42;;;;;;;1.17;1.17;;;-2.30;74.60;-3.30;98926.00;;;;5114426;28;20195;-74
2021/12/21 03:09:18;;;;;;;2.73;1.87;;;-2.30;74.70;-3.30;98929.00;;;;5114197;28;20204;-76
2021/12/21 03:11:50;;;;;;;3.20;1.80;;;-2.20;74.20;-3.40;98923.00;;;;5096388;28;20257;-74
2021/12/21 03:14:18;;;;;;;1.50;1.43;;;-2.30;74.00;-3.40;98938.00;;;;5114024;28;20213;-74
2021/12/21 03:16:45;;;;;;;1.00;1.00;;;-2.20;74.40;-3.40;98951.00;;;;5114072;28;20673;-74
2021/12/21 03:19:12;;;;;;;1.70;1.60;;;-2.30;74.50;-3.30;98939.00;;;;5113932;28;20311;-74
2021/12/21 03:21:39;;;;;;;7.70;1.63;;;-2.30;74.40;-3.20;98911.00;;;;5114115;28;20198;-74
2021/12/21 03:24:09;;;;;;;7.70;2.70;;;-2.30;74.10;-3.40;98928.00;;;;5113901;28;20250;-74
2021/12/21 03:26:36;;;;;;;1.70;1.40;;;-2.30;73.60;-3.40;98933.00;;;;5113873;28;20328;-75
2021/12/21 03:29:05;;;;;;;1.50;1.40;;;-2.30;73.60;-3.50;98938.00;;;;5114007;28;20256;-74
2021/12/21 03:31:31;;;;;;;1.73;1.63;;;-2.40;73.00;-3.70;98933.00;;;;5113775;28;20211;-73
2021/12/21 03:34:00;;;;;;;1.43;1.43;;;-2.50;73.10;-3.60;98930.00;;;;5114550;28;20224;-74
2021/12/21 03:36:29;;;;;;;2.63;1.73;;;-2.50;73.90;-3.60;98929.00;;;;5117343;28;20196;-74
2021/12/21 03:39:02;;;;;;;1.03;1.03;;;-2.50;74.00;-3.70;98937.00;;;;5099445;28;20227;-74
2021/12/21 03:41:29;;;;;;;1.10;1.10;;;-2.60;73.90;-3.50;98931.00;;;;5116259;28;20239;-74
2021/12/21 03:43:59;;;;;;;1.57;1.23;;;-2.50;74.30;-3.70;98890.00;;;;5117091;28;20232;-74
2021/12/21 03:46:26;;;;;;;1.50;1.40;;;-2.60;74.00;-3.60;98929.00;;;;5117081;28;20233;-74
2021/12/21 03:48:53;;;;;;;1.20;1.20;;;-2.60;74.20;-3.70;98927.00;;;;5117255;28;20193;-74
2021/12/21 03:51:21;;;;;;;1.33;1.17;;;-2.60;74.40;-3.60;98921.00;;;;5117243;28;20224;-74
2021/12/21 03:53:49;;;;;;;1.17;1.17;;;-2.60;74.80;-3.50;98925.00;;;;5117049;28;20231;-74
2021/12/21 03:56:37;;;;;;;1.07;1.07;;;-2.50;74.70;-3.50;98927.00;;;;5116962;28;20206;-74
2021/12/21 03:59:05;;;;;;;1.13;1.13;;;-2.50;74.40;-3.70;98933.00;;;;5116868;28;20226;-74
2021/12/21 04:01:35;;;;;;;1.43;1.33;;;-2.50;74.10;-3.70;98924.00;;;;5117060;28;20217;-74
2021/12/21 04:04:04;;;;;;;1.63;1.43;;;-2.60;74.10;-3.70;98916.00;;;;5116950;28;20208;-74
2021/12/21 04:06:32;;;;;;;1.50;1.40;;;-2.60;74.00;-3.80;98927.00;;;;5098711;28;20253;-74
2021/12/21 04:08:58;;;;;;;1.10;1.10;;;-2.70;73.70;-3.70;98921.00;;;;5116783;28;20198;-74
2021/12/21 04:11:27;;;;;;;3.20;2.90;;;-2.70;74.10;-3.60;98922.00;;;;5116810;28;20260;-74
2021/12/21 04:13:54;;;;;;;3.10;1.53;;;-2.60;74.20;-3.70;98919.00;;;;5098694;28;20325;-74
2021/12/21 04:16:21;;;;;;;1.57;1.50;;;-2.60;73.60;-3.60;98931.00;;;;5116652;28;20273;-74
2021/12/21 04:18:50;;;;;;;2.73;2.20;;;-2.60;73.60;-3.60;98918.00;;;;5116568;28;20216;-74
2021/12/21 04:21:19;;;;;;;1.63;1.53;;;-2.60;73.40;-3.70;98932.00;;;;5115612;28;20321;-74
2021/12/21 04:23:45;;;;;;;0.90;0.90;;;-2.60;72.90;-3.70;98934.00;;;;5098619;28;20677;-74
2021/12/21 04:26:15;;;;;;;1.20;1.20;;;-2.70;73.30;-3.80;98926.00;;;;5116440;28;20301;-74
2021/12/21 04:28:44;;;;;;;0.80;0.80;;;-2.70;73.30;-3.80;98931.00;;;;5116652;28;20224;-74
2021/12/21 04:31:12;;;;;;;1.67;1.37;;;-2.80;73.30;-3.70;98934.00;;;;5116644;28;20190;-74
2021/12/21 04:33:42;;;;;;;1.27;1.27;;;-2.70;73.80;-3.90;98927.00;;;;5098363;28;20508;-74
2021/12/21 04:36:09;;;;;;;1.23;1.23;;;-2.70;73.40;-3.80;98929.00;;;;5116424;28;20207;-74
2021/12/21 04:38:39;;;;;;;1.13;1.13;;;-2.70;73.50;-3.80;98920.00;;;;5116379;28;20301;-74
2021/12/21 04:41:12;;;;;;;1.10;1.10;;;-2.80;73.30;-3.90;98914.00;;;;5116290;28;20206;-75
2021/12/21 04:43:43;;;;;;;2.37;2.27;;;-2.80;72.90;-3.90;98926.00;;;;5115693;28;20230;-74
2021/12/21 04:46:10;;;;;;;0.90;0.90;;;-2.80;72.90;-4.10;98922.00;;;;5114937;28;20301;-74
2021/12/21 04:48:38;;;;;;;2.10;1.90;;;-3.00;72.10;-3.90;98930.00;;;;5116159;28;20272;-74
2021/12/21 04:51:05;;;;;;;1.00;1.00;;;-2.90;73.30;-3.90;98926.00;;;;5116151;28;20190;-74
2021/12/21 04:53:32;;;;;;;2.30;2.13;;;-2.90;73.00;-3.80;98932.00;;;;5116269;28;20227;-74
2021/12/21 04:56:02;;;;;;;1.47;1.37;;;-2.80;73.30;-3.90;98897.00;;;;5116119;28;20282;-74
2021/12/21 04:58:29;;;;;;;1.30;1.30;;;-2.80;73.30;-3.90;98904.00;;;;5098174;28;20653;-74
2021/12/21 05:00:57;;;;;;;1.90;1.73;;;-2.80;73.80;-4.00;98889.00;;;;5116047;28;20227;-74
2021/12/21 05:03:24;;;;;;;1.80;1.70;;;-2.90;73.70;-3.90;98906.00;;;;5116138;28;20688;-75
2021/12/21 05:05:51;;;;;;;1.70;1.60;;;-2.80;73.60;-3.90;98924.00;;;;5115837;28;20203;-74
2021/12/21 05:08:21;;;;;;;3.63;1.73;;;-2.70;73.50;-3.90;98921.00;;;;5115892;28;20686;-74
2021/12/21 05:10:56;;;;;;;1.20;1.17;;;-2.80;73.10;-4.00;98913.00;;;;5115924;28;20203;-74
2021/12/21 05:13:27;;;;;;;3.50;1.83;;;-2.90;73.80;-3.90;98917.00;;;;5098264;28;20248;-74
2021/12/21 05:15:54;;;;;;;1.20;1.20;;;-2.80;73.40;-4.10;98922.00;;;;5115896;28;20210;-75
2021/12/21 05:18:21;;;;;;;1.77;1.67;;;-2.90;72.90;-4.00;98915.00;;;;5115789;28;20228;-74
2021/12/21 05:20:51;;;;;;;1.20;1.20;;;-2.90;73.60;-4.00;98915.00;;;;5115623;28;20218;-74
2021/12/21 05:23:19;;;;;;;1.57;1.50;;;-2.90;74.50;-3.90;98885.00;;;;5115760;28;20274;-74
2021/12/21 05:25:45;;;;;;;1.60;1.50;;;-2.90;74.00;-4.00;98901.00;;;;5115601;28;20195;-74
2021/12/21 05:28:15;;;;;;;1.87;1.77;;;-3.00;74.30;-4.00;98909.00;;;;5115680;28;20210;-74
2021/12/21 05:30:45;;;;;;;1.10;1.10;;;-3.00;73.70;-4.00;98905.00;;;;5115409;28;20621;-74
2021/12/21 05:33:15;;;;;;;1.23;1.23;;;-2.90;73.60;-3.90;98886.00;;;;5115421;28;20249;-74
2021/12/21 05:35:42;;;;;;;1.70;1.60;;;-2.90;73.30;-4.00;98899.00;;;;5097554;28;20191;-74
2021/12/21 05:38:12;;;;;;;1.00;1.00;;;-3.00;73.60;-3.90;98863.00;;;;5115452;28;20791;-74
2021/12/21 05:40:44;;;;;;;2.70;1.40;;;-3.00;73.10;-3.90;98900.00;;;;5115503;28;20229;-74
2021/12/21 05:43:14;;;;;;;1.10;1.10;;;-2.90;73.00;-3.90;98894.00;;;;5115321;28;20199;-73
2021/12/21 05:45:41;;;;;;;1.40;1.33;;;-2.90;72.60;-4.00;98897.00;;;;5115102;28;20203;-74
2021/12/21 05:48:08;;;;;;;1.13;1.13;;;-3.00;72.70;-4.00;98899.00;;;;5115350;28;20200;-74
2021/12/21 05:50:35;;;;;;;1.30;1.10;;;-2.90;73.30;-3.90;98899.00;;;;5115177;28;20304;-74
2021/12/21 05:53:04;;;;;;;1.93;1.83;;;-3.00;73.40;-4.00;98901.00;;;;5114180;28;20233;-74
2021/12/21 05:55:32;;;;;;;1.67;1.57;;;-3.00;73.10;-4.00;98893.00;;;;5115126;28;20219;-74
2021/12/21 05:58:01;;;;;;;1.30;1.30;;;-3.00;73.50;-4.10;98905.00;;;;5114664;28;20218;-74
2021/12/21 06:00:34;;;;;;;2.23;2.13;;;-3.00;73.30;-4.20;98897.00;;;;5115048;28;20233;-74
2021/12/21 06:03:01;;;;;;;2.00;1.67;;;-3.10;73.00;-4.10;98897.00;;;;5115039;28;20199;-74
2021/12/21 06:05:27;;;;;;;2.53;2.20;;;-3.00;73.60;-4.10;98903.00;;;;5114837;28;20204;-74
2021/12/21 06:07:55;;;;;;;1.83;1.73;;;-3.00;73.60;-4.10;98904.00;;;;5114997;28;20594;-74
2021/12/21 06:10:27;;;;;;;2.37;2.17;;;-3.10;73.80;-4.30;98908.00;;;;5114866;28;20195;-74
2021/12/21 06:15:44;;;;;;;1.67;1.57;;;-3.10;73.80;-4.10;98907.00;;;;5113050;28;20213;-74
2021/12/21 06:24:28;;;;;;;3.13;1.40;;;-3.20;73.30;-4.30;98900.00;;;;5114752;28;20289;-74
2021/12/21 06:26:39;;;;;;;2.17;2.03;;;-3.20;73.50;-4.20;98896.00;;;;5114882;28;20226;-76
2021/12/21 06:29:07;;;;;;;1.57;1.47;;;-3.20;73.80;-4.20;98896.00;;;;5114711;28;20208;-75
2021/12/21 06:31:38;;;;;;;1.57;1.43;;;-3.20;73.20;-4.10;98904.00;;;;5114649;28;20204;-75
2021/12/21 06:34:05;;;;;;;2.00;1.90;;;-3.10;73.00;-4.20;98903.00;;;;5114446;28;20198;-75
2021/12/21 06:36:33;;;;;;;1.00;1.00;;;-3.20;72.70;-4.30;98905.00;;;;5114359;28;20198;-75
2021/12/21 06:39:00;;;;;;;3.10;1.57;;;-3.20;72.70;-4.30;98908.00;;;;5096413;28;20278;-76
2021/12/21 06:41:27;;;;;;;0.93;0.93;;;-3.30;72.80;-4.30;98901.00;;;;5114488;28;20303;-73
2021/12/21 06:43:54;;;;;;;2.47;2.27;;;-3.20;72.80;-4.40;98901.00;;;;5114338;28;20300;-73
2021/12/21 06:46:44;;;;;;;2.87;2.13;;;-3.30;72.80;-4.30;98898.00;;;;5114069;28;20226;-73
2021/12/21 06:52:01;;;;;;;4.03;1.33;;;-3.30;73.20;-4.30;98857.00;;;;5114196;28;20631;-74
2021/12/21 06:54:29;;;;;;;2.30;2.13;;;-3.30;73.20;-4.30;98891.00;;;;5096440;28;20199;-73
2021/12/21 06:56:57;;;;;;;2.33;2.23;;;-3.20;73.10;-4.30;98851.00;;;;5096421;28;20212;-72
2021/12/21 06:59:24;;;;;;;1.87;1.73;;;-3.30;73.10;-4.20;98891.00;;;;5114029;28;20259;-73
2021/12/21 07:01:54;;;;;;;2.50;1.60;;;-3.20;73.20;-4.30;98896.00;;;;5114304;28;20198;-73
2021/12/21 07:04:21;;;;;;;2.03;1.73;;;-3.20;72.50;-4.40;98906.00;;;;5114597;28;20574;-73
2021/12/21 07:06:49;;;;;;;1.23;1.23;;;-3.30;72.70;-4.30;98902.00;;;;5113961;28;20225;-73
2021/12/21 07:09:22;;;;;;;1.50;1.43;;;-3.30;73.30;-4.40;98901.00;;;;5115269;28;20274;-74
2021/12/21 07:11:57;;;;;;;2.33;2.13;;;-3.30;72.70;-4.20;98923.00;;;;5099800;28;20264;-73
2021/12/21 07:19:56;;;;;;;1.60;1.53;;;-3.40;72.60;-4.50;98931.00;;;;5117575;28;20753;-75
2021/12/21 07:22:22;;;;;;;2.93;2.70;;;-3.40;72.80;-4.40;98919.00;;;;5117264;28;20285;-75
2021/12/21 07:24:51;;;;;;;2.00;1.90;;;-3.30;74.30;-4.30;98922.00;;;;5117536;28;20199;-74
2021/12/21 07:27:20;;;;;;;2.93;1.43;;;-3.30;73.40;-4.40;98919.00;;;;5117633;28;20202;-75
2021/12/21 07:29:48;;;;;;;1.80;1.70;;;-3.30;72.90;-4.40;98927.00;;;;5117560;28;20578;-74
2021/12/21 07:32:15;;;;;;;1.53;1.43;;;-3.30;73.30;-4.50;98926.00;;;;5117343;28;20313;-78
2021/12/21 07:34:41;;;;;;;2.67;2.50;;;-3.40;72.20;-4.70;98926.00;;;;5117623;28;20180;-80
2021/12/21 07:37:10;;;;;;;3.37;3.10;;;-3.50;73.10;-4.60;98929.00;;;;5117509;28;20278;-80
2021/12/21 07:39:37;;;;;;;2.10;1.97;;;-3.40;73.70;-4.50;98924.00;;;;5099257;28;20759;-72
2021/12/21 07:42:05;;;;;;;2.63;2.43;;;-3.40;73.70;-4.50;98934.00;;;;5117445;28;20283;-74
2021/12/21 07:44:32;;;;;;;1.57;1.47;;;-3.40;73.40;-4.50;98942.00;;;;5117099;28;20186;-73
2021/12/21 07:47:01;;;;;;;1.33;1.33;;;-3.40;73.70;-4.40;98926.00;;;;5117265;28;20709;-76
2021/12/21 07:49:29;;;;;;;2.10;1.90;;;-3.30;73.80;-4.30;98947.00;;;;5117343;28;20332;-76
2021/12/21 07:51:56;;;;;;;7.70;4.00;;;-3.30;73.80;-4.30;98945.00;;;;5099100;28;20223;-74
2021/12/21 07:54:23;;;;;;;3.03;2.77;;;-3.30;73.60;-4.30;98945.00;;;;5117178;28;20212;-74
2021/12/21 07:56:49;;;;;;;2.33;2.07;;;-3.30;73.40;-4.20;98943.00;;;;5117173;28;20242;-73
2021/12/21 07:59:16;;;;;;;3.43;1.87;;;-3.20;73.40;-4.20;98929.00;;;;5116800;28;20222;-74
2021/12/21 08:01:43;;;;;;;1.60;1.50;;;-3.20;73.10;-4.30;98939.00;;;;5117076;28;20188;-73
2021/12/21 08:04:11;;;;;;;1.60;1.53;;;-3.20;73.10;-4.30;98928.00;;;;5117049;28;20203;-74
2021/12/21 08:06:40;;;;;;;2.73;2.53;;;-3.20;73.30;-4.20;98940.00;;;;5116982;28;20232;-74
2021/12/21 08:09:07;;;;;;;1.83;1.73;;;-3.20;73.50;-4.20;98948.00;;;;5117055;28;20187;-73
2021/12/21 08:14:19;;;;;;;4.57;2.77;;;-3.10;73.40;-4.00;98951.00;;;;5116837;28;20218;-73
2021/12/21 08:16:46;;;;;;;3.10;2.83;;;-3.00;73.00;-4.10;98953.00;;;;5098753;28;20282;-74
2021/12/21 08:19:13;;;;;;;1.60;1.50;;;-3.00;72.80;-4.20;98942.00;;;;5116652;28;20291;-73
2021/12/21 08:21:40;;;;;;;2.50;2.20;;;-3.00;73.20;-4.10;98945.00;;;;5116498;28;20191;-73
2021/12/21 08:24:07;;;;;;;1.93;1.83;;;-3.00;73.60;-3.90;98952.00;;;;5116510;28;20218;-74
2021/12/21 08:26:34;;;;;;;1.27;1.27;;;-2.90;74.40;-3.70;98953.00;;;;5115715;28;20207;-72
2021/12/21 08:29:00;;;;;;;1.67;1.57;;;-2.70;74.60;-3.70;98958.00;;;;5116412;28;20283;-72
2021/12/21 08:31:29;;;;;;;2.63;2.27;;;-2.70;74.40;-3.70;98958.00;;;;5116340;28;20221;-73
2021/12/21 08:33:55;;;;;;;1.53;1.40;;;-2.60;74.60;-3.60;98956.00;;;;5098411;28;20203;-72
2021/12/21 08:36:22;;;;;;;3.43;2.07;;;-2.60;74.70;-3.50;98934.00;;;;5116327;28;20286;-73
2021/12/21 08:38:52;;;;;;;6.20;2.83;;;-2.50;75.00;-3.40;98939.00;;;;5098449;28;20256;-73
2021/12/21 08:41:20;;;;;;;2.47;1.17;;;-2.50;75.30;-3.50;98936.00;;;;5098743;28;20568;-72
2021/12/21 08:43:47;;;;;;;1.87;1.70;;;-2.50;75.30;-3.60;98940.00;;;;5098421;28;20335;-74
2021/12/21 08:46:13;;;;;;;3.57;1.97;;;-2.50;75.50;-3.50;98953.00;;;;5098299;28;20534;-74
2021/12/21 08:48:40;;;;;;;2.13;1.60;;;-2.40;76.00;-3.40;98944.00;;;;5116196;28;20200;-74
2021/12/21 08:51:07;;;;;;;1.10;1.10;;;-2.40;76.20;-3.30;98956.00;;;;5115970;28;20228;-73
2021/12/21 08:53:34;;;;;;;1.60;1.50;;;-2.30;76.50;-3.40;98950.00;;;;5116299;28;20198;-75
2021/12/21 08:56:02;;;;;;;2.10;1.93;;;-2.30;76.50;-3.20;98942.00;;;;5116280;28;20189;-73
2021/12/21 08:58:28;;;;;;;3.27;3.00;;;-2.20;76.80;-3.30;98947.00;;;;5098139;28;20674;-73
2021/12/21 09:00:55;;;;;;;2.77;2.37;;;-2.20;76.80;-3.30;98917.00;;;;5116142;28;20255;-73
2021/12/21 09:03:23;;;;;;;2.90;2.70;;;-2.10;77.10;-3.10;98953.00;;;;5115846;28;20251;-72
2021/12/21 09:05:52;;;;;;;4.20;3.37;;;-2.10;77.20;-3.00;98946.00;;;;5115652;28;20209;-72
2021/12/21 09:08:19;;;;;;;3.77;3.47;;;-2.00;77.70;-2.90;98945.00;;;;5097717;28;20204;-72
2021/12/21 09:10:49;;;;;;;2.83;2.60;;;-1.90;76.90;-2.90;98941.00;;;;5115877;28;20667;-72
2021/12/21 09:13:16;;;;;;;4.20;2.97;;;-1.80;76.80;-2.80;98943.00;;;;5097974;28;20215;-73
2021/12/21 09:15:43;;;;;;;2.17;1.97;;;-1.80;76.80;-2.70;98909.00;;;;5098097;28;20261;-74
2021/12/21 09:18:12;;;;;;;1.10;1.10;;;-1.70;77.00;-2.70;98882.00;;;;5115894;28;20196;-74
2021/12/21 09:20:39;;;;;;;6.43;2.90;;;-1.60;77.20;-2.50;98943.00;;;;5115735;28;20189;-74
2021/12/21 09:23:05;;;;;;;4.90;4.03;;;-1.50;77.20;-2.40;98929.00;;;;5097812;28;20526;-75
2021/12/21 09:25:32;;;;;;;2.00;1.87;;;-1.40;77.00;-2.30;98935.00;;;;5115030;28;20351;-75
2021/12/21 09:27:59;;;;;;;2.47;2.27;;;-1.40;76.40;-2.20;98935.00;;;;5115716;28;20345;-73
2021/12/21 09:30:28;;;;;;;3.20;2.50;;;-1.30;76.50;-2.10;98933.00;;;;5115511;28;20307;-73
2021/12/21 09:32:55;;;;;;;3.90;3.50;;;-1.20;76.60;-2.00;98939.00;;;;5114745;28;20303;-75
2021/12/21 09:35:22;;;;;;;2.87;2.63;;;-1.10;76.40;-1.90;98938.00;;;;5115408;28;20202;-74
2021/12/21 09:37:49;;;;;;;1.73;1.63;;;-1.00;76.40;-1.80;98910.00;;;;5115665;28;20296;-73
2021/12/21 09:40:20;;;;;;;4.73;2.03;;;-0.90;76.60;-1.80;98936.00;;;;5115506;28;20220;-72
2021/12/21 09:42:47;;;;;;;5.47;3.03;;;-0.80;76.40;-1.70;98931.00;;;;5115287;28;20307;-75
2021/12/21 09:45:16;;;;;;;1.13;1.10;;;-0.70;76.90;-1.60;98927.00;;;;5115365;28;20213;-73
2021/12/21 09:47:49;;;;;;;1.60;1.50;;;-0.60;77.10;-1.50;98938.00;;;;5115453;28;20202;-73
2021/12/21 09:50:17;;;;;;;5.10;3.27;;;-0.50;77.30;-1.40;98942.00;;;;5115305;28;20205;-72
2021/12/21 09:52:44;;;;;;;1.10;1.10;;;-0.50;77.30;-1.40;98941.00;;;;5115158;28;20308;-71
2021/12/21 09:55:14;;;;;;;1.20;1.20;;;-0.40;77.50;-1.20;98936.00;;;;5114882;28;20336;-73
2021/12/21 09:57:41;;;;;;;3.80;2.00;;;-0.30;77.80;-1.20;98942.00;;;;5115270;28;20248;-74
2021/12/21 10:00:15;;;;;;;2.33;2.03;;;-0.30;77.90;-1.10;98939.00;;;;5115185;28;20229;-74
2021/12/21 10:02:42;;;;;;;1.40;1.40;;;-0.20;78.20;-1.00;98947.00;;;;5114904;28;20217;-74
2021/12/21 10:05:13;;;;;;;1.40;1.40;;;-0.10;78.60;-0.80;98936.00;;;;5115053;28;20225;-74
2021/12/21 10:07:40;;;;;;;1.23;1.23;;;0.10;78.80;-0.70;98933.00;;;;5114999;28;20255;-72
2021/12/21 10:10:11;;;;;;;1.77;1.67;;;0.20;78.60;-0.70;98934.00;;;;5114941;28;20218;-73
2021/12/21 10:12:41;;;;;;;0.90;0.90;;;0.20;78.30;-0.60;98940.00;;;;5115048;28;20198;-73
2021/12/21 10:15:12;;;;;;;1.00;1.00;;;0.30;78.20;-0.60;98932.00;;;;5114775;28;20210;-74
2021/12/21 10:17:49;;;;;;;2.00;1.80;;;0.40;78.80;-0.50;98930.00;;;;5096821;28;20221;-74
2021/12/21 10:20:32;;;;;;;1.47;1.47;;;0.40;78.00;-0.50;98930.00;;;;5096857;28;20221;-74
2021/12/21 10:22:59;;;;;;;1.20;1.17;;;0.50;78.30;-0.40;98912.00;;;;5114841;28;20257;-75
2021/12/21 10:25:27;;;;;;;0.80;0.80;;;0.50;78.50;-0.20;98917.00;;;;5114750;28;20193;-72
2021/12/21 10:27:55;;;;;;;1.03;1.00;;;0.60;78.30;-0.20;98909.00;;;;5114556;28;20244;-71
2021/12/21 10:30:22;;;;;;;1.00;1.00;;;0.70;78.00;-0.20;98920.00;;;;5114615;28;20273;-72
2021/12/21 10:32:55;;;;;;;3.60;1.80;;;0.80;78.10;-0.20;98915.00;;;;5114582;28;20206;-74
2021/12/21 10:35:31;;;;;;;4.30;0.93;;;0.80;78.20;0.00;98918.00;;;;5114812;28;20215;-75
2021/12/21 10:38:03;;;;;;;2.57;2.37;;;0.90;78.40;0.10;98915.00;;;;5114688;28;20193;-75
2021/12/21 10:40:29;;;;;;;1.47;1.40;;;1.00;78.20;0.20;98916.00;;;;5114376;28;20226;-71
2021/12/21 10:43:02;;;;;;;1.80;1.70;;;1.10;78.40;0.30;98909.00;;;;5114613;28;20634;-74
2021/12/21 10:45:36;;;;;;;2.63;1.97;;;1.20;77.90;0.40;98902.00;;;;5114682;28;20276;-75
2021/12/21 10:48:11;;;;;;;1.50;1.40;;;1.30;77.90;0.60;98905.00;;;;5114403;28;20583;-72
2021/12/21 10:50:38;;;;;;;0.93;0.93;;;1.40;77.10;0.60;98894.00;;;;5114670;28;20613;-75
2021/12/21 10:53:05;;;;;;;1.30;1.30;;;1.50;76.20;0.60;98895.00;;;;5114555;28;20206;-74
2021/12/21 10:55:36;;;;;;;1.27;1.27;;;1.50;76.10;0.70;98900.00;;;;5114505;28;20224;-73
2021/12/21 10:58:11;;;;;;;1.50;1.43;;;1.60;76.10;0.90;98852.00;;;;5114440;28;20677;-74
2021/12/21 11:00:41;;;;;;;1.40;1.30;;;1.70;75.50;1.00;98881.00;;;;5114349;28;20221;-75
2021/12/21 11:03:08;;;;;;;1.63;1.53;;;1.80;74.60;0.90;98886.00;;;;5096390;28;20210;-75
2021/12/21 11:05:35;;;;;;;1.83;1.57;;;1.80;74.30;1.00;98881.00;;;;5114418;28;20220;-76
2021/12/21 11:08:06;;;;;;;0.97;0.97;;;1.90;74.20;1.00;98881.00;;;;5114303;28;20218;-76
2021/12/21 11:10:37;;;;;;;1.00;1.00;;;1.90;73.80;1.20;98865.00;;;;5114204;28;20207;-73
2021/12/21 11:13:08;;;;;;;1.00;1.00;;;2.00;74.20;1.30;98872.00;;;;5114148;28;20216;-72
2021/12/21 11:15:38;;;;;;;0.87;0.87;;;2.10;73.70;1.40;98872.00;;;;5114247;28;20619;-75
2021/12/21 11:18:08;;;;;;;1.00;0.90;;;2.20;73.40;1.50;98871.00;;;;5114140;28;20751;-75
2021/12/21 11:20:37;;;;;;;1.23;1.23;;;2.30;73.10;1.60;98870.00;;;;5114005;28;20251;-75
2021/12/21 11:23:05;;;;;;;1.03;1.03;;;2.40;72.60;1.50;98877.00;;;;5114105;28;20205;-75
2021/12/21 11:25:33;;;;;;;0.70;0.70;;;2.50;72.80;1.70;98860.00;;;;5096078;28;20201;-76
2021/12/21 11:28:02;;;;;;;1.43;1.33;;;2.60;72.60;1.90;98874.00;;;;5113976;28;20212;-75
2021/12/21 11:30:31;;;;;;;0.90;0.90;;;2.70;71.70;2.10;98868.00;;;;5114030;28;20643;-74
2021/12/21 11:33:04;;;;;;;1.40;1.30;;;2.80;71.10;2.30;98855.00;;;;5113806;28;20217;-74
2021/12/21 11:38:19;;;;;;;0.60;0.60;;;3.20;68.20;2.60;98855.00;;;;5113589;28;20620;-74
2021/12/21 11:40:48;;;;;;;0.83;0.83;;;3.30;66.60;2.80;98858.00;;;;5113833;28;20201;-75
2021/12/21 11:43:36;;;;;;;0.80;0.80;;;3.50;65.90;2.90;98856.00;;;;5113740;28;20256;-75
2021/12/21 11:46:10;;;;;;;0.70;0.70;;;3.60;65.20;3.10;98847.00;;;;5113739;28;20220;-74